This is the latest recevied weather packets stored in our database for station/object eb1ayw-13. If no packets are shown the sender has not sent any weather packets the latest 10 day(s).
| Time | Temp. | Humidity | Pressure | Rain* | Wind** | Luminosity | Snow |
|---|---|---|---|---|---|---|---|
| 1778143669 | 45.56° C | 13% | 999.6 hPa | - | - | - | - |
| 1778143069 | 42.22° C | 15% | 1000.3 hPa | - | - | - | - |
| 1778142469 | 43.89° C | 14% | 999.8 hPa | - | - | - | - |
| 1778141870 | 40° C | 17% | 1000.9 hPa | - | - | - | - |
| 1778141269 | 39.44° C | 17% | 1001.1 hPa | - | - | - | - |
| 1778140669 | 36.11° C | 19% | 1002 hPa | - | - | - | - |
| 1778140069 | 40.56° C | 16% | 1001 hPa | - | - | - | - |
| 1778139469 | 39.44° C | 17% | 1001.2 hPa | - | - | - | - |
| 1778138869 | 40° C | 16% | 1001.1 hPa | - | - | - | - |
| 1778138269 | 38.33° C | 18% | 1001.4 hPa | - | - | - | - |
| 1778137669 | 40° C | 16% | 1000.9 hPa | - | - | - | - |
| 1778137069 | 39.44° C | 17% | 1001.1 hPa | - | - | - | - |
| 1778136469 | 40° C | 16% | 1001 hPa | - | - | - | - |
| 1778135869 | 42.78° C | 14% | 1000.3 hPa | - | - | - | - |
| 1778135269 | 38.89° C | 17% | 1001.3 hPa | - | - | - | - |
| 1778134669 | 34.44° C | 20% | 1002.4 hPa | - | - | - | - |
| 1778134069 | 39.44° C | 17% | 1001.1 hPa | - | - | - | - |
| 1778133469 | 39.44° C | 17% | 1001.2 hPa | - | - | - | - |
| 1778132869 | 39.44° C | 17% | 1001 hPa | - | - | - | - |
| 1778132269 | 40° C | 16% | 1000.9 hPa | - | - | - | - |
| 1778131669 | 40° C | 16% | 1000.8 hPa | - | - | - | - |
| 1778131069 | 33.33° C | 22% | 1002.4 hPa | - | - | - | - |
| 1778130469 | 32.78° C | 22% | 1002.5 hPa | - | - | - | - |
| 1778129869 | 33.89° C | 22% | 1002.3 hPa | - | - | - | - |
| 1778129269 | 34.44° C | 21% | 1002.3 hPa | - | - | - | - |
* Rain since midnight (hover to see other rain measurements)
** Current wind speed in m/s (hover to see current wind gust speed)